sensor_id;sensor_type;location;lat;lon;timestamp;P1;durP1;ratioP1;P2;durP2;ratioP2
44973;SDS011;60981;50.720;11.342;2023-04-16T00:00:49;6.57;;;4.78;;
44973;SDS011;60981;50.720;11.342;2023-04-16T00:01:51;7.95;;;5.00;;
44973;SDS011;60981;50.720;11.342;2023-04-16T00:02:53;7.68;;;4.72;;
44973;SDS011;60981;50.720;11.342;2023-04-16T00:03:54;8.30;;;5.25;;
44973;SDS011;60981;50.720;11.342;2023-04-16T00:04:56;7.50;;;4.78;;
44973;SDS011;60981;50.720;11.342;2023-04-16T00:05:58;9.30;;;5.57;;
44973;SDS011;60981;50.720;11.342;2023-04-16T00:07:00;7.63;;;4.47;;
44973;SDS011;60981;50.720;11.342;2023-04-16T00:08:01;7.38;;;4.60;;
44973;SDS011;60981;50.720;11.342;2023-04-16T00:09:03;7.13;;;4.75;;
44973;SDS011;60981;50.720;11.342;2023-04-16T00:10:05;6.85;;;4.55;;
44973;SDS011;60981;50.720;11.342;2023-04-16T00:11:07;7.05;;;4.22;;
44973;SDS011;60981;50.720;11.342;2023-04-16T00:12:08;7.63;;;4.10;;
44973;SDS011;60981;50.720;11.342;2023-04-16T00:13:10;6.07;;;4.35;;
44973;SDS011;60981;50.720;11.342;2023-04-16T00:14:12;7.68;;;4.88;;
44973;SDS011;60981;50.720;11.342;2023-04-16T00:15:13;6.57;;;4.28;;
44973;SDS011;60981;50.720;11.342;2023-04-16T00:16:15;9.43;;;5.25;;
44973;SDS011;60981;50.720;11.342;2023-04-16T00:17:17;7.80;;;4.90;;
44973;SDS011;60981;50.720;11.342;2023-04-16T00:18:18;10.02;;;4.63;;
44973;SDS011;60981;50.720;11.342;2023-04-16T00:19:21;8.85;;;5.00;;
44973;SDS011;60981;50.720;11.342;2023-04-16T00:20:23;8.98;;;5.22;;
44973;SDS011;60981;50.720;11.342;2023-04-16T00:21:24;8.05;;;5.35;;
44973;SDS011;60981;50.720;11.342;2023-04-16T00:22:26;7.43;;;4.50;;
44973;SDS011;60981;50.720;11.342;2023-04-16T00:23:28;7.43;;;5.00;;
44973;SDS011;60981;50.720;11.342;2023-04-16T00:24:30;8.48;;;5.28;;
44973;SDS011;60981;50.720;11.342;2023-04-16T00:25:31;9.20;;;4.80;;
44973;SDS011;60981;50.720;11.342;2023-04-16T00:26:33;8.68;;;4.95;;
44973;SDS011;60981;50.720;11.342;2023-04-16T00:27:35;7.88;;;4.93;;
44973;SDS011;60981;50.720;11.342;2023-04-16T00:28:36;7.55;;;4.78;;
44973;SDS011;60981;50.720;11.342;2023-04-16T00:29:38;6.90;;;4.40;;
44973;SDS011;60981;50.720;11.342;2023-04-16T00:30:40;8.20;;;4.70;;
44973;SDS011;60981;50.720;11.342;2023-04-16T00:31:41;8.00;;;4.22;;
44973;SDS011;60981;50.720;11.342;2023-04-16T00:32:43;6.78;;;4.32;;
44973;SDS011;60981;50.720;11.342;2023-04-16T00:33:44;7.88;;;4.85;;
44973;SDS011;60981;50.720;11.342;2023-04-16T00:34:46;6.25;;;4.15;;
44973;SDS011;60981;50.720;11.342;2023-04-16T00:35:49;7.03;;;4.28;;
44973;SDS011;60981;50.720;11.342;2023-04-16T00:36:51;7.32;;;4.53;;
44973;SDS011;60981;50.720;11.342;2023-04-16T00:37:53;6.70;;;3.72;;
44973;SDS011;60981;50.720;11.342;2023-04-16T00:38:55;7.85;;;4.60;;
44973;SDS011;60981;50.720;11.342;2023-04-16T00:39:56;7.32;;;4.38;;
44973;SDS011;60981;50.720;11.342;2023-04-16T00:40:58;7.53;;;4.65;;
44973;SDS011;60981;50.720;11.342;2023-04-16T00:42:00;6.80;;;4.20;;
44973;SDS011;60981;50.720;11.342;2023-04-16T00:43:02;7.40;;;4.45;;
44973;SDS011;60981;50.720;11.342;2023-04-16T00:44:03;7.03;;;4.20;;
44973;SDS011;60981;50.720;11.342;2023-04-16T00:45:05;7.25;;;5.00;;
44973;SDS011;60981;50.720;11.342;2023-04-16T00:46:07;6.35;;;3.95;;
44973;SDS011;60981;50.720;11.342;2023-04-16T00:47:08;7.07;;;4.80;;
44973;SDS011;60981;50.720;11.342;2023-04-16T00:48:10;7.85;;;5.32;;
44973;SDS011;60981;50.720;11.342;2023-04-16T00:49:12;8.68;;;5.65;;
44973;SDS011;60981;50.720;11.342;2023-04-16T00:50:14;11.15;;;7.10;;
44973;SDS011;60981;50.720;11.342;2023-04-16T00:51:17;9.15;;;5.93;;
44973;SDS011;60981;50.720;11.342;2023-04-16T00:52:19;9.50;;;6.22;;
44973;SDS011;60981;50.720;11.342;2023-04-16T00:53:20;6.10;;;4.22;;
44973;SDS011;60981;50.720;11.342;2023-04-16T00:54:23;7.10;;;4.10;;
44973;SDS011;60981;50.720;11.342;2023-04-16T00:55:25;6.95;;;4.60;;
44973;SDS011;60981;50.720;11.342;2023-04-16T00:56:26;9.35;;;5.18;;
44973;SDS011;60981;50.720;11.342;2023-04-16T00:57:29;8.93;;;5.35;;
44973;SDS011;60981;50.720;11.342;2023-04-16T00:58:31;7.47;;;3.90;;
44973;SDS011;60981;50.720;11.342;2023-04-16T00:59:33;5.88;;;3.90;;
44973;SDS011;60981;50.720;11.342;2023-04-16T01:00:34;7.85;;;3.80;;
44973;SDS011;60981;50.720;11.342;2023-04-16T01:01:36;6.25;;;3.92;;
44973;SDS011;60981;50.720;11.342;2023-04-16T01:02:38;7.18;;;4.15;;
44973;SDS011;60981;50.720;11.342;2023-04-16T01:03:44;5.88;;;3.75;;
44973;SDS011;60981;50.720;11.342;2023-04-16T01:04:46;5.90;;;3.55;;
44973;SDS011;60981;50.720;11.342;2023-04-16T01:05:48;7.53;;;5.10;;
44973;SDS011;60981;50.720;11.342;2023-04-16T01:06:49;9.60;;;6.40;;
44973;SDS011;60981;50.720;11.342;2023-04-16T01:07:51;7.80;;;5.05;;
44973;SDS011;60981;50.720;11.342;2023-04-16T01:08:53;5.50;;;3.30;;
44973;SDS011;60981;50.720;11.342;2023-04-16T01:09:55;6.35;;;4.20;;
44973;SDS011;60981;50.720;11.342;2023-04-16T01:10:56;7.65;;;4.20;;
44973;SDS011;60981;50.720;11.342;2023-04-16T01:11:58;7.20;;;3.90;;
44973;SDS011;60981;50.720;11.342;2023-04-16T01:13:00;6.53;;;4.03;;
44973;SDS011;60981;50.720;11.342;2023-04-16T01:14:02;7.13;;;4.30;;
44973;SDS011;60981;50.720;11.342;2023-04-16T01:15:03;9.35;;;4.32;;
44973;SDS011;60981;50.720;11.342;2023-04-16T01:16:06;6.82;;;4.35;;
44973;SDS011;60981;50.720;11.342;2023-04-16T05:25:09;5.07;;;3.30;;
44973;SDS011;60981;50.720;11.342;2023-04-16T12:42:21;4.82;;;2.22;;
44973;SDS011;60981;50.720;11.342;2023-04-16T12:43:22;4.88;;;2.30;;
44973;SDS011;60981;50.720;11.342;2023-04-16T12:44:24;3.63;;;1.70;;
44973;SDS011;60981;50.720;11.342;2023-04-16T12:45:28;3.75;;;2.00;;
44973;SDS011;60981;50.720;11.342;2023-04-16T12:46:29;3.33;;;1.70;;
44973;SDS011;60981;50.720;11.342;2023-04-16T12:47:31;4.47;;;2.75;;
44973;SDS011;60981;50.720;11.342;2023-04-16T12:48:33;4.70;;;2.47;;
44973;SDS011;60981;50.720;11.342;2023-04-16T12:49:36;2.53;;;1.00;;
44973;SDS011;60981;50.720;11.342;2023-04-16T12:50:37;2.55;;;1.20;;
44973;SDS011;60981;50.720;11.342;2023-04-16T12:51:40;3.28;;;1.60;;
44973;SDS011;60981;50.720;11.342;2023-04-16T12:52:42;3.60;;;1.60;;
44973;SDS011;60981;50.720;11.342;2023-04-16T12:53:44;6.07;;;3.05;;
44973;SDS011;60981;50.720;11.342;2023-04-16T12:54:45;3.53;;;1.90;;
44973;SDS011;60981;50.720;11.342;2023-04-16T12:55:47;3.13;;;1.63;;
44973;SDS011;60981;50.720;11.342;2023-04-16T12:56:49;4.85;;;1.58;;
44973;SDS011;60981;50.720;11.342;2023-04-16T12:57:50;3.75;;;1.65;;
44973;SDS011;60981;50.720;11.342;2023-04-16T12:58:55;3.97;;;2.03;;
44973;SDS011;60981;50.720;11.342;2023-04-16T12:59:57;2.80;;;1.42;;
44973;SDS011;60981;50.720;11.342;2023-04-16T13:00:59;4.45;;;1.50;;
44973;SDS011;60981;50.720;11.342;2023-04-16T13:02:00;4.38;;;2.00;;
44973;SDS011;60981;50.720;11.342;2023-04-16T13:03:03;2.67;;;1.35;;
44973;SDS011;60981;50.720;11.342;2023-04-16T13:04:05;3.75;;;1.50;;
44973;SDS011;60981;50.720;11.342;2023-04-16T13:05:08;2.95;;;1.42;;
44973;SDS011;60981;50.720;11.342;2023-04-16T13:06:10;2.85;;;1.27;;
44973;SDS011;60981;50.720;11.342;2023-04-16T13:07:11;2.88;;;1.38;;
44973;SDS011;60981;50.720;11.342;2023-04-16T13:08:13;3.30;;;1.85;;
44973;SDS011;60981;50.720;11.342;2023-04-16T13:09:15;3.00;;;1.50;;
44973;SDS011;60981;50.720;11.342;2023-04-16T13:10:19;3.60;;;1.45;;
44973;SDS011;60981;50.720;11.342;2023-04-16T13:11:21;2.78;;;1.40;;
44973;SDS011;60981;50.720;11.342;2023-04-16T13:12:23;2.55;;;1.33;;
44973;SDS011;60981;50.720;11.342;2023-04-16T13:13:24;3.50;;;1.73;;
44973;SDS011;60981;50.720;11.342;2023-04-16T13:14:26;3.00;;;1.20;;
44973;SDS011;60981;50.720;11.342;2023-04-16T13:15:28;3.22;;;1.67;;
44973;SDS011;60981;50.720;11.342;2023-04-16T13:16:29;2.60;;;1.33;;
44973;SDS011;60981;50.720;11.342;2023-04-16T13:17:31;3.10;;;1.40;;
44973;SDS011;60981;50.720;11.342;2023-04-16T13:18:33;2.63;;;1.40;;
44973;SDS011;60981;50.720;11.342;2023-04-16T13:19:35;3.45;;;1.52;;
44973;SDS011;60981;50.720;11.342;2023-04-16T13:20:37;3.10;;;1.52;;
44973;SDS011;60981;50.720;11.342;2023-04-16T13:21:38;3.22;;;1.50;;
44973;SDS011;60981;50.720;11.342;2023-04-16T13:22:40;3.45;;;1.75;;
44973;SDS011;60981;50.720;11.342;2023-04-16T13:23:42;3.15;;;1.60;;
44973;SDS011;60981;50.720;11.342;2023-04-16T13:24:44;3.65;;;1.65;;
44973;SDS011;60981;50.720;11.342;2023-04-16T13:25:46;2.90;;;1.50;;
44973;SDS011;60981;50.720;11.342;2023-04-16T13:26:50;2.90;;;1.60;;
44973;SDS011;60981;50.720;11.342;2023-04-16T13:27:52;3.55;;;1.70;;
44973;SDS011;60981;50.720;11.342;2023-04-16T13:28:54;2.83;;;1.45;;
44973;SDS011;60981;50.720;11.342;2023-04-16T13:29:56;2.80;;;1.20;;
44973;SDS011;60981;50.720;11.342;2023-04-16T13:30:58;3.33;;;1.73;;
44973;SDS011;60981;50.720;11.342;2023-04-16T13:31:59;3.20;;;1.60;;
44973;SDS011;60981;50.720;11.342;2023-04-16T13:33:01;3.55;;;2.03;;
44973;SDS011;60981;50.720;11.342;2023-04-16T13:34:03;3.20;;;1.70;;
44973;SDS011;60981;50.720;11.342;2023-04-16T13:35:05;4.13;;;2.45;;
44973;SDS011;60981;50.720;11.342;2023-04-16T13:36:06;3.53;;;2.05;;
44973;SDS011;60981;50.720;11.342;2023-04-16T13:37:08;3.25;;;1.77;;
44973;SDS011;60981;50.720;11.342;2023-04-16T13:38:10;3.47;;;2.05;;
44973;SDS011;60981;50.720;11.342;2023-04-16T13:39:12;3.88;;;2.13;;
44973;SDS011;60981;50.720;11.342;2023-04-16T13:40:14;4.00;;;2.30;;
44973;SDS011;60981;50.720;11.342;2023-04-16T13:41:16;4.45;;;2.53;;
44973;SDS011;60981;50.720;11.342;2023-04-16T13:42:17;4.60;;;2.80;;
44973;SDS011;60981;50.720;11.342;2023-04-16T13:43:19;3.75;;;2.35;;
44973;SDS011;60981;50.720;11.342;2023-04-16T13:44:22;4.00;;;2.17;;
44973;SDS011;60981;50.720;11.342;2023-04-16T13:45:24;4.18;;;2.60;;
44973;SDS011;60981;50.720;11.342;2023-04-16T13:46:27;5.63;;;3.50;;
44973;SDS011;60981;50.720;11.342;2023-04-16T13:47:29;5.10;;;3.10;;
44973;SDS011;60981;50.720;11.342;2023-04-16T13:48:31;4.15;;;2.28;;
44973;SDS011;60981;50.720;11.342;2023-04-16T13:49:33;5.45;;;2.78;;
44973;SDS011;60981;50.720;11.342;2023-04-16T13:50:36;4.25;;;2.70;;
44973;SDS011;60981;50.720;11.342;2023-04-16T13:51:38;3.80;;;2.42;;
44973;SDS011;60981;50.720;11.342;2023-04-16T13:52:39;5.22;;;2.85;;
44973;SDS011;60981;50.720;11.342;2023-04-16T13:53:41;4.45;;;2.80;;
44973;SDS011;60981;50.720;11.342;2023-04-16T13:54:43;4.82;;;3.25;;
44973;SDS011;60981;50.720;11.342;2023-04-16T13:55:44;5.75;;;3.78;;
44973;SDS011;60981;50.720;11.342;2023-04-16T13:56:46;5.38;;;3.83;;
44973;SDS011;60981;50.720;11.342;2023-04-16T13:57:47;5.75;;;3.88;;
44973;SDS011;60981;50.720;11.342;2023-04-16T13:58:50;5.88;;;3.30;;
44973;SDS011;60981;50.720;11.342;2023-04-16T13:59:52;6.20;;;4.00;;
44973;SDS011;60981;50.720;11.342;2023-04-16T14:00:54;6.10;;;3.70;;
44973;SDS011;60981;50.720;11.342;2023-04-16T14:01:56;6.47;;;4.40;;
44973;SDS011;60981;50.720;11.342;2023-04-16T14:02:57;6.53;;;4.32;;
44973;SDS011;60981;50.720;11.342;2023-04-16T14:04:00;7.00;;;4.32;;
44973;SDS011;60981;50.720;11.342;2023-04-16T14:05:07;6.32;;;4.13;;
44973;SDS011;60981;50.720;11.342;2023-04-16T14:06:08;7.63;;;4.82;;
44973;SDS011;60981;50.720;11.342;2023-04-16T14:07:10;7.32;;;4.50;;
44973;SDS011;60981;50.720;11.342;2023-04-16T14:08:12;6.45;;;4.20;;
44973;SDS011;60981;50.720;11.342;2023-04-16T14:09:15;7.18;;;4.47;;
44973;SDS011;60981;50.720;11.342;2023-04-16T14:10:17;9.93;;;6.38;;
44973;SDS011;60981;50.720;11.342;2023-04-16T14:11:19;8.27;;;5.80;;
44973;SDS011;60981;50.720;11.342;2023-04-16T14:12:21;8.50;;;6.07;;
44973;SDS011;60981;50.720;11.342;2023-04-16T14:13:22;8.45;;;5.97;;
44973;SDS011;60981;50.720;11.342;2023-04-16T14:14:27;6.78;;;4.50;;
44973;SDS011;60981;50.720;11.342;2023-04-16T14:15:29;7.38;;;4.90;;
44973;SDS011;60981;50.720;11.342;2023-04-16T14:16:30;6.60;;;4.38;;
44973;SDS011;60981;50.720;11.342;2023-04-16T14:17:32;10.20;;;6.43;;
44973;SDS011;60981;50.720;11.342;2023-04-16T14:18:34;7.30;;;4.57;;
44973;SDS011;60981;50.720;11.342;2023-04-16T14:19:36;7.70;;;5.25;;
44973;SDS011;60981;50.720;11.342;2023-04-16T14:20:37;7.90;;;5.70;;
44973;SDS011;60981;50.720;11.342;2023-04-16T14:21:40;8.77;;;6.13;;
44973;SDS011;60981;50.720;11.342;2023-04-16T14:22:41;8.77;;;5.97;;
44973;SDS011;60981;50.720;11.342;2023-04-16T14:23:44;7.80;;;5.38;;
44973;SDS011;60981;50.720;11.342;2023-04-16T14:24:46;8.13;;;5.72;;
44973;SDS011;60981;50.720;11.342;2023-04-16T14:25:47;9.68;;;5.70;;
44973;SDS011;60981;50.720;11.342;2023-04-16T14:26:49;10.07;;;7.00;;
44973;SDS011;60981;50.720;11.342;2023-04-16T14:27:50;9.25;;;5.82;;
44973;SDS011;60981;50.720;11.342;2023-04-16T14:28:53;8.90;;;6.00;;
44973;SDS011;60981;50.720;11.342;2023-04-16T14:29:54;8.10;;;5.63;;
44973;SDS011;60981;50.720;11.342;2023-04-16T14:30:56;8.65;;;6.20;;
44973;SDS011;60981;50.720;11.342;2023-04-16T14:31:58;9.00;;;6.22;;
44973;SDS011;60981;50.720;11.342;2023-04-16T14:32:59;10.07;;;6.03;;
44973;SDS011;60981;50.720;11.342;2023-04-16T14:34:01;11.13;;;6.82;;
44973;SDS011;60981;50.720;11.342;2023-04-16T14:35:03;8.70;;;5.97;;
44973;SDS011;60981;50.720;11.342;2023-04-16T14:36:05;10.13;;;6.80;;
44973;SDS011;60981;50.720;11.342;2023-04-16T14:37:07;9.95;;;6.65;;
44973;SDS011;60981;50.720;11.342;2023-04-16T14:38:09;9.77;;;6.88;;
44973;SDS011;60981;50.720;11.342;2023-04-16T14:39:11;9.73;;;6.88;;
44973;SDS011;60981;50.720;11.342;2023-04-16T14:40:13;11.65;;;7.63;;
44973;SDS011;60981;50.720;11.342;2023-04-16T14:41:14;10.35;;;6.88;;
44973;SDS011;60981;50.720;11.342;2023-04-16T14:42:16;10.65;;;7.40;;
44973;SDS011;60981;50.720;11.342;2023-04-16T14:43:18;9.50;;;6.47;;
44973;SDS011;60981;50.720;11.342;2023-04-16T14:44:19;9.48;;;6.78;;
44973;SDS011;60981;50.720;11.342;2023-04-16T14:45:22;10.35;;;6.47;;
44973;SDS011;60981;50.720;11.342;2023-04-16T14:46:26;13.00;;;8.93;;
44973;SDS011;60981;50.720;11.342;2023-04-16T14:47:28;9.77;;;6.78;;
44973;SDS011;60981;50.720;11.342;2023-04-16T14:48:29;9.17;;;6.30;;
44973;SDS011;60981;50.720;11.342;2023-04-16T14:49:32;9.65;;;6.55;;
44973;SDS011;60981;50.720;11.342;2023-04-16T14:50:33;10.02;;;6.50;;
44973;SDS011;60981;50.720;11.342;2023-04-16T14:51:38;12.77;;;7.87;;
44973;SDS011;60981;50.720;11.342;2023-04-16T14:52:40;11.48;;;7.75;;
44973;SDS011;60981;50.720;11.342;2023-04-16T14:53:42;11.63;;;7.60;;
44973;SDS011;60981;50.720;11.342;2023-04-16T14:54:44;14.65;;;9.48;;
44973;SDS011;60981;50.720;11.342;2023-04-16T14:55:46;10.70;;;7.47;;
44973;SDS011;60981;50.720;11.342;2023-04-16T14:56:48;11.70;;;8.10;;
44973;SDS011;60981;50.720;11.342;2023-04-16T14:57:49;10.70;;;7.35;;
44973;SDS011;60981;50.720;11.342;2023-04-16T14:58:51;9.65;;;6.60;;
44973;SDS011;60981;50.720;11.342;2023-04-16T14:59:53;11.00;;;7.10;;
44973;SDS011;60981;50.720;11.342;2023-04-16T15:00:55;11.85;;;7.85;;
44973;SDS011;60981;50.720;11.342;2023-04-16T15:01:57;12.60;;;8.10;;
44973;SDS011;60981;50.720;11.342;2023-04-16T15:02:59;11.98;;;7.60;;
44973;SDS011;60981;50.720;11.342;2023-04-16T15:04:00;12.18;;;7.95;;
44973;SDS011;60981;50.720;11.342;2023-04-16T15:05:03;13.30;;;9.00;;
44973;SDS011;60981;50.720;11.342;2023-04-16T15:06:05;11.65;;;8.13;;
44973;SDS011;60981;50.720;11.342;2023-04-16T15:07:07;12.70;;;7.88;;
44973;SDS011;60981;50.720;11.342;2023-04-16T15:08:08;10.65;;;7.75;;
44973;SDS011;60981;50.720;11.342;2023-04-16T15:09:10;11.18;;;7.57;;
44973;SDS011;60981;50.720;11.342;2023-04-16T15:10:12;13.77;;;8.60;;
44973;SDS011;60981;50.720;11.342;2023-04-16T15:11:14;13.13;;;8.40;;
44973;SDS011;60981;50.720;11.342;2023-04-16T15:12:15;11.40;;;7.68;;
44973;SDS011;60981;50.720;11.342;2023-04-16T15:13:19;12.75;;;8.05;;
44973;SDS011;60981;50.720;11.342;2023-04-16T15:14:21;11.68;;;7.85;;
44973;SDS011;60981;50.720;11.342;2023-04-16T15:15:22;10.63;;;6.93;;
44973;SDS011;60981;50.720;11.342;2023-04-16T15:16:24;10.20;;;6.82;;
44973;SDS011;60981;50.720;11.342;2023-04-16T15:17:26;12.02;;;8.70;;
44973;SDS011;60981;50.720;11.342;2023-04-16T15:18:28;11.70;;;8.15;;
44973;SDS011;60981;50.720;11.342;2023-04-16T15:19:29;11.55;;;7.53;;
44973;SDS011;60981;50.720;11.342;2023-04-16T15:20:31;10.60;;;7.25;;
44973;SDS011;60981;50.720;11.342;2023-04-16T15:21:33;10.65;;;7.50;;
44973;SDS011;60981;50.720;11.342;2023-04-16T15:22:34;10.88;;;7.50;;
44973;SDS011;60981;50.720;11.342;2023-04-16T15:23:36;11.50;;;8.25;;
44973;SDS011;60981;50.720;11.342;2023-04-16T15:24:38;12.27;;;8.05;;
44973;SDS011;60981;50.720;11.342;2023-04-16T15:25:39;13.95;;;8.90;;
44973;SDS011;60981;50.720;11.342;2023-04-16T15:26:41;10.48;;;7.30;;
44973;SDS011;60981;50.720;11.342;2023-04-16T15:27:43;10.15;;;6.75;;
44973;SDS011;60981;50.720;11.342;2023-04-16T15:28:45;11.55;;;7.45;;
44973;SDS011;60981;50.720;11.342;2023-04-16T15:29:46;15.57;;;9.75;;
44973;SDS011;60981;50.720;11.342;2023-04-16T15:30:50;20.80;;;12.38;;
44973;SDS011;60981;50.720;11.342;2023-04-16T15:31:52;13.88;;;8.90;;
44973;SDS011;60981;50.720;11.342;2023-04-16T15:32:54;12.43;;;8.40;;
44973;SDS011;60981;50.720;11.342;2023-04-16T15:33:56;10.95;;;7.60;;
44973;SDS011;60981;50.720;11.342;2023-04-16T15:34:57;11.40;;;6.88;;
44973;SDS011;60981;50.720;11.342;2023-04-16T15:36:00;10.93;;;7.33;;
44973;SDS011;60981;50.720;11.342;2023-04-16T15:37:02;10.18;;;7.25;;
44973;SDS011;60981;50.720;11.342;2023-04-16T15:38:03;10.60;;;7.47;;
44973;SDS011;60981;50.720;11.342;2023-04-16T15:39:05;9.90;;;6.82;;
44973;SDS011;60981;50.720;11.342;2023-04-16T15:40:07;11.68;;;7.80;;
44973;SDS011;60981;50.720;11.342;2023-04-16T15:41:11;11.45;;;7.57;;
44973;SDS011;60981;50.720;11.342;2023-04-16T15:42:13;12.13;;;7.85;;
44973;SDS011;60981;50.720;11.342;2023-04-16T15:43:15;11.80;;;7.30;;
44973;SDS011;60981;50.720;11.342;2023-04-16T15:44:17;11.60;;;7.32;;
44973;SDS011;60981;50.720;11.342;2023-04-16T15:45:18;12.02;;;7.97;;
44973;SDS011;60981;50.720;11.342;2023-04-16T15:46:20;10.43;;;6.80;;
44973;SDS011;60981;50.720;11.342;2023-04-16T15:47:22;15.82;;;9.95;;
44973;SDS011;60981;50.720;11.342;2023-04-16T15:48:23;11.15;;;7.68;;
44973;SDS011;60981;50.720;11.342;2023-04-16T15:49:25;10.60;;;7.13;;
44973;SDS011;60981;50.720;11.342;2023-04-16T15:50:26;11.07;;;7.03;;
44973;SDS011;60981;50.720;11.342;2023-04-16T15:51:28;9.43;;;6.35;;
44973;SDS011;60981;50.720;11.342;2023-04-16T15:52:31;11.50;;;7.32;;
44973;SDS011;60981;50.720;11.342;2023-04-16T15:53:33;9.60;;;6.50;;
44973;SDS011;60981;50.720;11.342;2023-04-16T15:54:35;10.63;;;6.90;;
44973;SDS011;60981;50.720;11.342;2023-04-16T15:55:36;10.68;;;7.18;;
44973;SDS011;60981;50.720;11.342;2023-04-16T15:56:38;10.02;;;7.13;;
44973;SDS011;60981;50.720;11.342;2023-04-16T15:57:40;10.45;;;7.35;;
44973;SDS011;60981;50.720;11.342;2023-04-16T15:58:42;11.27;;;7.70;;
44973;SDS011;60981;50.720;11.342;2023-04-16T15:59:43;12.18;;;7.30;;
44973;SDS011;60981;50.720;11.342;2023-04-16T16:01:05;12.30;;;7.53;;
44973;SDS011;60981;50.720;11.342;2023-04-16T16:02:06;13.00;;;8.32;;
44973;SDS011;60981;50.720;11.342;2023-04-16T16:03:08;11.45;;;7.85;;
44973;SDS011;60981;50.720;11.342;2023-04-16T16:04:10;11.13;;;7.45;;
44973;SDS011;60981;50.720;11.342;2023-04-16T16:05:13;11.50;;;7.03;;
44973;SDS011;60981;50.720;11.342;2023-04-16T16:06:14;10.50;;;6.97;;
44973;SDS011;60981;50.720;11.342;2023-04-16T16:07:18;11.75;;;7.90;;
44973;SDS011;60981;50.720;11.342;2023-04-16T16:08:20;13.35;;;8.43;;
44973;SDS011;60981;50.720;11.342;2023-04-16T16:09:22;13.23;;;8.57;;
44973;SDS011;60981;50.720;11.342;2023-04-16T16:10:27;12.98;;;8.43;;
44973;SDS011;60981;50.720;11.342;2023-04-16T16:11:28;17.20;;;10.95;;
44973;SDS011;60981;50.720;11.342;2023-04-16T16:12:30;14.15;;;9.30;;
44973;SDS011;60981;50.720;11.342;2023-04-16T16:13:32;14.48;;;9.10;;
44973;SDS011;60981;50.720;11.342;2023-04-16T16:14:34;14.43;;;9.10;;
44973;SDS011;60981;50.720;11.342;2023-04-16T16:15:35;17.08;;;10.15;;
44973;SDS011;60981;50.720;11.342;2023-04-16T16:16:37;15.48;;;10.48;;
44973;SDS011;60981;50.720;11.342;2023-04-16T16:17:40;14.90;;;10.48;;
44973;SDS011;60981;50.720;11.342;2023-04-16T16:18:42;15.05;;;9.38;;
44973;SDS011;60981;50.720;11.342;2023-04-16T16:19:43;14.95;;;9.65;;
44973;SDS011;60981;50.720;11.342;2023-04-16T16:20:47;15.40;;;10.27;;
44973;SDS011;60981;50.720;11.342;2023-04-16T16:21:48;16.35;;;10.50;;
44973;SDS011;60981;50.720;11.342;2023-04-16T16:22:50;14.55;;;9.27;;
44973;SDS011;60981;50.720;11.342;2023-04-16T16:23:54;15.43;;;10.63;;
44973;SDS011;60981;50.720;11.342;2023-04-16T16:24:55;17.55;;;10.98;;
44973;SDS011;60981;50.720;11.342;2023-04-16T16:25:58;16.65;;;10.75;;
44973;SDS011;60981;50.720;11.342;2023-04-16T16:26:59;16.00;;;10.45;;
44973;SDS011;60981;50.720;11.342;2023-04-16T16:28:02;16.42;;;10.68;;
44973;SDS011;60981;50.720;11.342;2023-04-16T16:29:06;14.93;;;10.23;;
44973;SDS011;60981;50.720;11.342;2023-04-16T16:30:08;15.75;;;10.55;;
44973;SDS011;60981;50.720;11.342;2023-04-16T16:31:10;16.83;;;11.48;;
44973;SDS011;60981;50.720;11.342;2023-04-16T16:32:12;20.00;;;12.25;;
44973;SDS011;60981;50.720;11.342;2023-04-16T16:33:14;18.92;;;12.18;;
44973;SDS011;60981;50.720;11.342;2023-04-16T16:34:15;20.48;;;12.32;;
44973;SDS011;60981;50.720;11.342;2023-04-16T16:35:21;17.17;;;11.27;;
44973;SDS011;60981;50.720;11.342;2023-04-16T16:36:23;17.00;;;10.45;;
44973;SDS011;60981;50.720;11.342;2023-04-16T16:37:24;16.75;;;11.13;;
44973;SDS011;60981;50.720;11.342;2023-04-16T16:38:27;17.13;;;11.15;;
44973;SDS011;60981;50.720;11.342;2023-04-16T16:39:28;15.85;;;10.68;;
44973;SDS011;60981;50.720;11.342;2023-04-16T16:40:30;17.45;;;11.25;;
44973;SDS011;60981;50.720;11.342;2023-04-16T16:41:32;17.08;;;11.65;;
44973;SDS011;60981;50.720;11.342;2023-04-16T16:42:37;93.90;;;49.37;;
44973;SDS011;60981;50.720;11.342;2023-04-16T16:43:39;23.75;;;14.13;;
44973;SDS011;60981;50.720;11.342;2023-04-16T16:44:41;20.83;;;13.25;;
44973;SDS011;60981;50.720;11.342;2023-04-16T16:45:42;19.60;;;12.43;;
44973;SDS011;60981;50.720;11.342;2023-04-16T16:46:44;18.88;;;12.85;;
44973;SDS011;60981;50.720;11.342;2023-04-16T16:47:48;17.83;;;12.18;;
44973;SDS011;60981;50.720;11.342;2023-04-16T16:48:49;18.08;;;12.50;;
44973;SDS011;60981;50.720;11.342;2023-04-16T16:49:51;17.65;;;11.88;;
44973;SDS011;60981;50.720;11.342;2023-04-16T16:50:55;18.08;;;11.35;;
44973;SDS011;60981;50.720;11.342;2023-04-16T16:51:56;19.02;;;12.63;;
44973;SDS011;60981;50.720;11.342;2023-04-16T16:52:58;16.63;;;11.57;;
44973;SDS011;60981;50.720;11.342;2023-04-16T16:54:00;17.98;;;11.77;;
44973;SDS011;60981;50.720;11.342;2023-04-16T16:55:02;18.13;;;12.32;;
44973;SDS011;60981;50.720;11.342;2023-04-16T16:56:04;17.45;;;11.48;;
44973;SDS011;60981;50.720;11.342;2023-04-16T16:57:06;17.23;;;11.90;;
44973;SDS011;60981;50.720;11.342;2023-04-16T16:58:07;19.92;;;13.18;;
44973;SDS011;60981;50.720;11.342;2023-04-16T16:59:10;18.17;;;12.43;;
44973;SDS011;60981;50.720;11.342;2023-04-16T17:00:12;18.80;;;12.68;;
44973;SDS011;60981;50.720;11.342;2023-04-16T17:01:15;19.45;;;13.15;;
44973;SDS011;60981;50.720;11.342;2023-04-16T17:02:17;18.77;;;13.25;;
44973;SDS011;60981;50.720;11.342;2023-04-16T17:03:19;19.50;;;13.07;;
44973;SDS011;60981;50.720;11.342;2023-04-16T17:04:20;18.42;;;12.52;;
44973;SDS011;60981;50.720;11.342;2023-04-16T17:05:22;20.23;;;12.93;;
44973;SDS011;60981;50.720;11.342;2023-04-16T17:06:24;17.90;;;12.23;;
44973;SDS011;60981;50.720;11.342;2023-04-16T17:07:27;18.27;;;12.38;;
44973;SDS011;60981;50.720;11.342;2023-04-16T17:08:28;20.15;;;13.80;;
44973;SDS011;60981;50.720;11.342;2023-04-16T17:09:30;17.95;;;11.80;;
44973;SDS011;60981;50.720;11.342;2023-04-16T17:10:32;18.63;;;12.93;;
44973;SDS011;60981;50.720;11.342;2023-04-16T17:11:33;18.48;;;12.80;;
44973;SDS011;60981;50.720;11.342;2023-04-16T17:12:35;18.13;;;12.18;;
44973;SDS011;60981;50.720;11.342;2023-04-16T17:13:37;18.10;;;12.23;;
44973;SDS011;60981;50.720;11.342;2023-04-16T17:14:38;17.80;;;11.90;;
44973;SDS011;60981;50.720;11.342;2023-04-16T17:15:40;19.77;;;12.77;;
44973;SDS011;60981;50.720;11.342;2023-04-16T17:16:42;18.98;;;12.18;;
44973;SDS011;60981;50.720;11.342;2023-04-16T17:17:46;20.33;;;13.03;;
44973;SDS011;60981;50.720;11.342;2023-04-16T17:18:48;21.25;;;13.50;;
44973;SDS011;60981;50.720;11.342;2023-04-16T17:19:50;23.13;;;15.13;;
44973;SDS011;60981;50.720;11.342;2023-04-16T17:20:52;20.97;;;13.60;;
44973;SDS011;60981;50.720;11.342;2023-04-16T17:21:53;19.55;;;12.90;;
44973;SDS011;60981;50.720;11.342;2023-04-16T17:22:55;21.48;;;13.95;;
44973;SDS011;60981;50.720;11.342;2023-04-16T17:23:57;40.60;;;23.55;;
44973;SDS011;60981;50.720;11.342;2023-04-16T17:24:59;22.95;;;14.35;;
44973;SDS011;60981;50.720;11.342;2023-04-16T17:26:01;19.25;;;12.63;;
44973;SDS011;60981;50.720;11.342;2023-04-16T17:27:03;19.73;;;13.40;;
44973;SDS011;60981;50.720;11.342;2023-04-16T17:28:04;21.98;;;15.00;;
44973;SDS011;60981;50.720;11.342;2023-04-16T17:29:06;21.00;;;14.95;;